Main page
METAR-TAF:

METAR-TAF

Airports :

Nashua Airport

Nashua, New Hampshire, United States

latitude: 42-47N, longitude: 071-31W, elevation: 200 ft

Current weather observation

The report was made 29 minutes ago, at 17:56 UTC
Wind 17 mph from the West with gusts up to 32 mph
Temperature 43°F
Humidity 52%
Pressure 29.27 in. Hg
Visibility: 10 miles
Scattered clouds at a height of 3000 ft
Broken clouds at a height of 3500 ft

METAR: KASH 271756Z COR 26015G28KT 10SM SCT030 BKN035 06/M03 A2927 RMK AO2 PK WND 26028/1748 SLP918 6//// T00611028 10100 20050 53035

Time: 13:25 (18:25 UTC)


TAF: missing

Weather observations and forecasts of more than 4000 airports (METAR and TAF reports).

The available stations are represented by yellow and red dots on the map.

Hover mouse over dot to see the name of the station.

Then click to see weather observations and forecasts.

To change the map : click on the green buttons with a black cross to zoom in, on the green button with a dash to zoom out, or on the green arrows for adjacent maps.


METAR-TAF: